createdAt,value
2023-02-16T00:00:43.393Z,101420.44
2023-02-16T00:03:16.862Z,101419.08
2023-02-16T00:05:45.774Z,101429.53
2023-02-16T00:08:15.627Z,101420.42
2023-02-16T00:10:46.451Z,101426.94
2023-02-16T00:13:46.567Z,101422.02
2023-02-16T00:16:22.348Z,101421.41
2023-02-16T00:18:51.886Z,101421.41
2023-02-16T00:21:20.513Z,101425.09
2023-02-16T00:23:50.009Z,101428.03
2023-02-16T00:26:25.329Z,101428.77
2023-02-16T00:28:59.669Z,101414.98
2023-02-16T00:31:33.393Z,101423.47
2023-02-16T00:34:26.050Z,101421.75
2023-02-16T00:36:56.335Z,101423.47
2023-02-16T00:39:25.140Z,101420.52
2023-02-16T00:41:57.807Z,101419.52
2023-02-16T00:44:43.631Z,101422.36
2023-02-16T00:47:35.368Z,101423.22
2023-02-16T00:50:18.397Z,101425.06
2023-02-16T00:52:48.279Z,101425.92
2023-02-16T00:55:22.306Z,101413.76
2023-02-16T00:58:27.519Z,101405.39
2023-02-16T01:01:00.360Z,101409.69
2023-02-16T01:03:29.495Z,101408.44
2023-02-16T01:06:18.157Z,101406.85
2023-02-16T01:09:07.626Z,101399.86
2023-02-16T01:11:38.196Z,101402.69
2023-02-16T01:14:11.360Z,101397.64
2023-02-16T01:16:41.966Z,101401.81
2023-02-16T01:19:12.587Z,101402.30
2023-02-16T01:21:41.332Z,101399.97
2023-02-16T01:24:10.087Z,101395.30
2023-02-16T01:26:42.339Z,101390.63
2023-02-16T01:29:17.554Z,101396.03
2023-02-16T01:31:46.395Z,101392.47
2023-02-16T01:34:15.022Z,101394.31
2023-02-16T01:36:47.991Z,101398.48
2023-02-16T01:39:19.447Z,101401.43
2023-02-16T01:42:15.587Z,101394.05
2023-02-16T01:44:50.949Z,101399.08
2023-02-16T01:47:43.368Z,101397.24
2023-02-16T01:50:19.191Z,101389.75
2023-02-16T01:53:04.673Z,101391.48
2023-02-16T01:55:38.218Z,101387.17
2023-02-16T01:58:34.691Z,101389.02
2023-02-16T02:01:22.275Z,101389.02
2023-02-16T02:04:09.418Z,101397.24
2023-02-16T02:06:38.553Z,101396.98
2023-02-16T02:09:22.422Z,101394.05
2023-02-16T02:12:26.004Z,101396.27
2023-02-16T02:14:56.399Z,101398.36
2023-02-16T02:17:25.999Z,101397.87
2023-02-16T02:20:29.118Z,101395.66
2023-02-16T02:23:32.807Z,101397.50
2023-02-16T02:26:54.024Z,101402.53
2023-02-16T02:30:10.963Z,101396.13
2023-02-16T02:33:10.817Z,101403.23
2023-02-16T02:36:08.250Z,101403.84
2023-02-16T02:39:17.834Z,101403.13
2023-02-16T02:42:22.211Z,101394.15
2023-02-16T02:45:06.795Z,101402.63
2023-02-16T02:47:40.353Z,101395.87
2023-02-16T02:50:48.548Z,101393.42
2023-02-16T02:53:18.379Z,101405.22
2023-02-16T02:56:07.509Z,101397.72
2023-02-16T02:58:54.622Z,101399.19
2023-02-16T03:01:23.347Z,101405.08
2023-02-16T03:03:54.674Z,101403.07
2023-02-16T03:06:33.914Z,101401.72
2023-02-16T03:09:08.541Z,101408.39
2023-02-16T03:11:56.459Z,101397.30
2023-02-16T03:14:36.512Z,101405.27
2023-02-16T03:17:29.435Z,101406.84
2023-02-16T03:20:17.446Z,101406.11
2023-02-16T03:23:04.576Z,101396.65
2023-02-16T03:25:54.007Z,101394.80
2023-02-16T03:28:43.858Z,101391.24
2023-02-16T03:31:18.527Z,101389.75
2023-02-16T03:33:49.688Z,101387.55
2023-02-16T03:36:18.430Z,101386.42
2023-02-16T03:38:47.166Z,101377.69
2023-02-16T03:41:16.288Z,101381.00
2023-02-16T03:43:44.868Z,101380.62
2023-02-16T03:46:13.568Z,101374.73
2023-02-16T03:48:45.110Z,101370.80
2023-02-16T03:51:13.819Z,101372.75
2023-02-16T03:53:42.990Z,101377.04
2023-02-16T03:56:11.919Z,101373.48
2023-02-16T03:58:40.626Z,101371.27
2023-02-16T04:01:11.732Z,101365.00
2023-02-16T04:03:41.518Z,101364.52
2023-02-16T04:06:11.726Z,101364.89
2023-02-16T04:08:40.528Z,101363.16
2023-02-16T04:11:29.171Z,101357.88
2023-02-16T04:13:59.478Z,101356.16
2023-02-16T04:16:28.150Z,101372.85
2023-02-16T04:18:57.472Z,101363.26
2023-02-16T04:21:26.247Z,101363.86
2023-02-16T04:23:54.825Z,101358.58
2023-02-16T04:26:25.517Z,101349.98
2023-02-16T04:28:54.238Z,101347.66
2023-02-16T04:31:23.298Z,101357.48
2023-02-16T04:33:52.144Z,101347.28
2023-02-16T04:36:21.222Z,101345.19
2023-02-16T04:38:50.671Z,101338.18
2023-02-16T04:41:19.214Z,101346.40
2023-02-16T04:43:50.888Z,101338.41
2023-02-16T04:46:20.121Z,101329.31
2023-02-16T04:48:50.519Z,101333.36
2023-02-16T04:51:19.456Z,101333.73
2023-02-16T04:53:48.139Z,101330.78
2023-02-16T04:56:18.251Z,101325.13
2023-02-16T04:58:48.377Z,101323.03
2023-02-16T05:01:22.774Z,101324.98
2023-02-16T05:03:51.939Z,101324.13
2023-02-16T05:06:20.864Z,101322.28
2023-02-16T05:08:49.730Z,101317.86
2023-02-16T05:11:38.284Z,101314.38
2023-02-16T05:14:29.156Z,101315.84
2023-02-16T05:16:57.841Z,101314.61
2023-02-16T05:19:27.990Z,101313.49
2023-02-16T05:21:56.624Z,101321.97
2023-02-16T05:24:27.731Z,101318.03
2023-02-16T05:26:56.826Z,101327.59
2023-02-16T05:29:25.251Z,101323.92
2023-02-16T05:31:53.887Z,101319.27
2023-02-16T05:34:24.226Z,101317.69
2023-02-16T05:36:53.059Z,101318.66
2023-02-16T05:39:21.957Z,101325.03
2023-02-16T05:41:50.399Z,101324.17
2023-02-16T05:44:19.297Z,101322.22
2023-02-16T05:46:49.427Z,101325.78
2023-02-16T05:49:18.217Z,101323.57
2023-02-16T05:51:48.147Z,101322.22
2023-02-16T05:54:17.138Z,101323.08
2023-02-16T05:56:50.202Z,101312.17
2023-02-16T05:59:19.098Z,101314.30
2023-02-16T06:01:51.330Z,101325.47
2023-02-16T06:04:21.986Z,101322.89
2023-02-16T06:06:51.426Z,101328.73
2023-02-16T06:09:20.118Z,101333.34
2023-02-16T06:11:49.106Z,101335.06
2023-02-16T06:14:20.318Z,101329.92
2023-02-16T06:16:51.840Z,101336.44
2023-02-16T06:19:22.994Z,101324.17
2023-02-16T06:21:52.507Z,101326.13
2023-02-16T06:24:21.215Z,101318.39
2023-02-16T06:26:49.782Z,101322.07
2023-02-16T06:29:18.533Z,101320.72
2023-02-16T06:31:47.142Z,101325.27
2023-02-16T06:34:15.845Z,101336.44
2023-02-16T06:36:45.942Z,101330.17
2023-02-16T06:39:14.681Z,101321.09
2023-02-16T06:41:43.171Z,101320.12
2023-02-16T06:44:15.044Z,101319.52
2023-02-16T06:46:46.596Z,101313.62
2023-02-16T06:49:18.251Z,101319.77
2023-02-16T06:51:47.925Z,101317.92
2023-02-16T06:54:16.320Z,101317.81
2023-02-16T06:56:44.782Z,101321.63
2023-02-16T06:59:14.114Z,101324.07
2023-02-16T07:01:45.152Z,101316.34
2023-02-16T07:04:13.470Z,101318.06
2023-02-16T07:06:43.723Z,101306.89
2023-02-16T07:09:13.875Z,101306.77
2023-02-16T07:11:42.303Z,101306.17
2023-02-16T07:14:12.480Z,101299.30
2023-02-16T07:16:41.546Z,101302.74
2023-02-16T07:19:10.705Z,101297.59
2023-02-16T07:21:39.592Z,101290.47
2023-02-16T07:24:11.625Z,101291.21
2023-02-16T07:26:40.372Z,101296.49
2023-02-16T07:29:10.069Z,101289.99
2023-02-16T07:31:39.119Z,101290.62
2023-02-16T07:34:08.831Z,101289.40
2023-02-16T07:36:37.868Z,101279.70
2023-02-16T07:39:06.765Z,101280.56
2023-02-16T07:41:35.520Z,101273.08
2023-02-16T07:44:06.314Z,101277.63
2023-02-16T07:46:35.420Z,101271.37
2023-02-16T07:49:05.854Z,101268.06
2023-02-16T07:51:35.966Z,101269.78
2023-02-16T07:54:07.568Z,101258.77
2023-02-16T07:56:36.189Z,101269.45
2023-02-16T07:59:04.896Z,101264.05
2023-02-16T08:01:35.447Z,101265.78
2023-02-16T08:04:07.106Z,101262.46
2023-02-16T08:06:35.922Z,101265.16
2023-02-16T08:09:04.550Z,101265.28
2023-02-16T08:11:34.834Z,101265.16
2023-02-16T08:14:04.228Z,101267.37
2023-02-16T08:16:32.967Z,101251.52
2023-02-16T08:19:05.004Z,101254.83
2023-02-16T08:21:34.611Z,101247.57
2023-02-16T08:24:06.843Z,101246.34
2023-02-16T08:26:39.573Z,101248.42
2023-02-16T08:29:16.287Z,101244.24
2023-02-16T08:31:46.220Z,101244.48
2023-02-16T08:34:18.116Z,101248.93
2023-02-16T08:36:48.042Z,101242.52
2023-02-16T08:39:19.856Z,101247.06
2023-02-16T08:41:49.557Z,101246.68
2023-02-16T08:44:19.538Z,101241.88
2023-02-16T08:46:49.599Z,101238.78
2023-02-16T08:49:19.780Z,101242.09
2023-02-16T08:51:57.290Z,101236.92
2023-02-16T08:54:30.244Z,101234.58
2023-02-16T08:56:59.524Z,101239.63
2023-02-16T08:59:29.095Z,101236.42
2023-02-16T09:01:58.805Z,101229.03
2023-02-16T09:04:28.991Z,101222.98
2023-02-16T09:06:58.190Z,101221.23
2023-02-16T09:09:27.132Z,101223.08
2023-02-16T09:11:57.993Z,101223.68
2023-02-16T09:14:27.618Z,101221.58
2023-02-16T09:16:57.854Z,101223.03
2023-02-16T09:19:28.039Z,101211.22
2023-02-16T09:21:57.794Z,101214.03
2023-02-16T09:24:27.953Z,101214.62
2023-02-16T09:26:57.704Z,101212.52
2023-02-16T09:29:26.365Z,101218.49
2023-02-16T09:31:55.641Z,101212.55
2023-02-16T09:34:28.320Z,101216.34
2023-02-16T09:36:58.185Z,101204.16
2023-02-16T09:39:26.544Z,101198.97
2023-02-16T09:42:22.248Z,101192.16
2023-02-16T09:45:16.292Z,101198.16
2023-02-16T09:47:47.102Z,101198.84
2023-02-16T09:50:43.897Z,101191.77
2023-02-16T09:53:00.573Z,101188.44
2023-02-16T09:55:37.374Z,101192.27
2023-02-16T09:58:21.339Z,101189.71
2023-02-16T10:00:54.051Z,101184.28
2023-02-16T10:04:06.244Z,101187.23
2023-02-16T10:06:47.842Z,101179.40
2023-02-16T10:09:18.116Z,101175.74
2023-02-16T10:11:56.045Z,101171.67
2023-02-16T10:14:43.152Z,101159.95
2023-02-16T10:17:38.688Z,101165.00
2023-02-16T10:20:23.564Z,101158.70
2023-02-16T10:23:18.072Z,101158.19
2023-02-16T10:26:04.251Z,101153.92
2023-02-16T10:28:46.947Z,101143.77
2023-02-16T10:31:43.311Z,101150.83
2023-02-16T10:34:42.196Z,101139.26
2023-02-16T10:37:31.291Z,101139.47
2023-02-16T10:40:23.606Z,101132.33
2023-02-16T10:43:14.105Z,101127.04
2023-02-16T10:45:53.615Z,101131.11
2023-02-16T10:48:24.249Z,101119.54
2023-02-16T10:51:12.296Z,101123.69
2023-02-16T10:53:47.770Z,101121.69
2023-02-16T10:56:43.179Z,101117.97
2023-02-16T10:59:21.346Z,101114.61
2023-02-16T11:01:58.685Z,101110.03
2023-02-16T11:04:40.455Z,101107.97
2023-02-16T11:07:18.391Z,101099.11
2023-02-16T11:09:55.312Z,101101.82
2023-02-16T11:12:35.051Z,101094.67
2023-02-16T11:15:18.621Z,101095.11
2023-02-16T11:17:54.772Z,101096.75
2023-02-16T11:20:46.764Z,101092.39
2023-02-16T11:23:40.955Z,101089.96
2023-02-16T11:26:23.630Z,101081.67
2023-02-16T11:28:52.283Z,101076.31
2023-02-16T11:31:39.489Z,101068.66
2023-02-16T11:34:42.605Z,101070.52
2023-02-16T11:37:32.930Z,101062.02
2023-02-16T11:40:08.947Z,101058.24
2023-02-16T11:42:47.289Z,101054.81
2023-02-16T11:45:35.919Z,101044.95
2023-02-16T11:48:13.591Z,101043.66
2023-02-16T11:51:02.462Z,101039.80
2023-02-16T11:53:36.198Z,101036.73
2023-02-16T11:56:27.172Z,101037.02
2023-02-16T11:59:18.909Z,101026.16
2023-02-16T12:02:14.893Z,101024.59
2023-02-16T12:05:21.423Z,101021.88
2023-02-16T12:08:18.144Z,101013.73
2023-02-16T12:11:00.124Z,101007.16
2023-02-16T12:13:59.768Z,100997.87
2023-02-16T12:16:43.495Z,100991.73
2023-02-16T12:19:29.934Z,100983.73
2023-02-16T12:22:18.855Z,100986.66
2023-02-16T12:24:59.842Z,100984.00
2023-02-16T12:27:52.340Z,100983.80
2023-02-16T12:31:11.469Z,100977.00
2023-02-16T12:34:17.432Z,100970.36
2023-02-16T12:37:01.038Z,100972.43
2023-02-16T12:39:56.836Z,100963.78
2023-02-16T12:43:22.348Z,100966.50
2023-02-16T12:45:53.857Z,100970.72
2023-02-16T12:48:41.285Z,100961.87
2023-02-16T12:51:14.997Z,100963.16
2023-02-16T12:54:02.222Z,100957.88
2023-02-16T12:56:45.052Z,100958.02
2023-02-16T12:59:25.027Z,100956.96
2023-02-16T13:01:55.948Z,100948.97
2023-02-16T13:04:39.538Z,100951.03
2023-02-16T13:07:32.656Z,100941.73
2023-02-16T13:10:24.956Z,100947.52
2023-02-16T13:13:18.253Z,100949.52
2023-02-16T13:16:23.903Z,100941.53
2023-02-16T13:18:41.117Z,100936.66
2023-02-16T13:21:26.644Z,100933.66
2023-02-16T13:24:34.190Z,100930.94
2023-02-16T13:27:34.444Z,100928.58
2023-02-16T13:30:30.062Z,100922.09
2023-02-16T13:33:24.334Z,100922.73
2023-02-16T13:36:21.697Z,100913.73
2023-02-16T13:39:32.349Z,100914.80
2023-02-16T13:42:23.057Z,100907.36
2023-02-16T13:44:55.668Z,100900.58
2023-02-16T13:47:34.185Z,100900.08
2023-02-16T13:50:14.413Z,100896.86
2023-02-16T13:52:44.214Z,100898.06
2023-02-16T13:55:37.271Z,100894.50
2023-02-16T13:58:20.154Z,100890.22
2023-02-16T14:00:49.427Z,100887.80
2023-02-16T14:03:23.517Z,100884.38
2023-02-16T14:05:55.272Z,100894.38
2023-02-16T14:08:27.192Z,100891.81
2023-02-16T14:11:08.187Z,100889.75
2023-02-16T14:13:45.845Z,100883.56
2023-02-16T14:16:29.409Z,100877.72
2023-02-16T14:19:19.766Z,100882.05
2023-02-16T14:21:49.134Z,100878.27
2023-02-16T14:24:32.834Z,100866.71
2023-02-16T14:27:08.956Z,100868.92
2023-02-16T14:29:59.267Z,100869.36
2023-02-16T14:32:32.805Z,100857.09
2023-02-16T14:35:24.318Z,100863.81
2023-02-16T14:38:02.808Z,100861.11
2023-02-16T14:40:50.078Z,100852.61
2023-02-16T14:43:45.539Z,100848.19
2023-02-16T14:46:50.438Z,100841.70
2023-02-16T14:49:41.040Z,100844.70
2023-02-16T14:52:40.216Z,100840.64
2023-02-16T14:55:41.259Z,100839.57
2023-02-16T14:58:33.749Z,100828.02
2023-02-16T15:01:12.536Z,100830.73
2023-02-16T15:03:47.648Z,100831.38
2023-02-16T15:06:41.796Z,100830.31
2023-02-16T15:09:23.786Z,100822.82
2023-02-16T15:12:17.184Z,100820.69
2023-02-16T15:15:01.265Z,100824.91
2023-02-16T15:17:44.637Z,100825.05
2023-02-16T15:20:37.046Z,100822.19
2023-02-16T15:23:10.748Z,100825.91
2023-02-16T15:25:40.497Z,100820.27
2023-02-16T15:28:20.690Z,100822.27
2023-02-16T15:31:06.021Z,100814.44
2023-02-16T15:33:43.341Z,100812.16
2023-02-16T15:36:14.560Z,100814.37
2023-02-16T15:38:58.645Z,100812.01
2023-02-16T15:41:34.526Z,100807.09
2023-02-16T15:44:04.696Z,100814.66
2023-02-16T15:46:36.926Z,100810.49
2023-02-16T15:49:16.820Z,100799.80
2023-02-16T15:51:45.809Z,100800.15
2023-02-16T15:54:30.540Z,100792.73
2023-02-16T15:57:02.681Z,100795.44
2023-02-16T15:59:49.967Z,100796.73
2023-02-16T16:02:39.810Z,100798.59
2023-02-16T16:05:26.039Z,100798.09
2023-02-16T16:07:57.994Z,100793.02
2023-02-16T16:10:34.211Z,100783.67
2023-02-16T16:13:10.058Z,100782.61
2023-02-16T16:15:45.097Z,100779.19
2023-02-16T16:18:43.922Z,100777.62
2023-02-16T16:21:22.950Z,100778.84
2023-02-16T16:24:00.643Z,100766.93
2023-02-16T16:26:35.502Z,100771.99
2023-02-16T16:29:08.383Z,100767.58
2023-02-16T16:31:41.985Z,100766.87
2023-02-16T16:34:16.443Z,100762.44
2023-02-16T16:36:50.986Z,100765.30
2023-02-16T16:39:37.129Z,100764.44
2023-02-16T16:42:21.533Z,100760.73
2023-02-16T16:45:07.946Z,100759.88
2023-02-16T16:47:41.445Z,100758.67
2023-02-16T16:50:18.981Z,100752.19
2023-02-16T16:52:50.025Z,100755.04
2023-02-16T16:55:30.083Z,100749.62
2023-02-16T16:58:07.728Z,100747.41
2023-02-16T17:00:41.421Z,100743.41
2023-02-16T17:03:14.098Z,100740.34
2023-02-16T17:05:43.560Z,100737.28
2023-02-16T17:08:12.425Z,100735.93
2023-02-16T17:10:42.892Z,100722.31
2023-02-16T17:13:16.127Z,100724.67
2023-02-16T17:15:55.960Z,100715.98
2023-02-16T17:18:26.450Z,100714.91
2023-02-16T17:20:55.138Z,100708.43
2023-02-16T17:23:24.620Z,100713.99
2023-02-16T17:25:53.368Z,100711.57
2023-02-16T17:28:23.868Z,100711.92
2023-02-16T17:30:52.852Z,100709.86
2023-02-16T17:33:21.582Z,100708.80
2023-02-16T17:35:50.632Z,100703.31
2023-02-16T17:38:20.503Z,100707.38
2023-02-16T17:40:51.052Z,100706.52
2023-02-16T17:43:20.083Z,100698.54
2023-02-16T17:45:50.696Z,100693.77
2023-02-16T17:48:27.438Z,100691.56
2023-02-16T17:50:58.518Z,100686.28
2023-02-16T17:53:27.145Z,100687.28
2023-02-16T17:55:56.921Z,100685.22
2023-02-16T17:58:26.877Z,100680.45
2023-02-16T18:00:55.734Z,100678.35
2023-02-16T18:03:25.499Z,100681.70
2023-02-16T18:05:55.996Z,100675.93
2023-02-16T18:08:25.829Z,100676.08
2023-02-16T18:10:58.781Z,100673.80
2023-02-16T18:13:30.898Z,100673.09
2023-02-16T18:16:03.480Z,100671.37
2023-02-16T18:18:36.414Z,100666.11
2023-02-16T18:21:06.382Z,100666.25
2023-02-16T18:23:36.215Z,100661.13
2023-02-16T18:26:06.908Z,100657.70
2023-02-16T18:28:36.338Z,100657.34
2023-02-16T18:31:07.412Z,100652.58
2023-02-16T18:33:36.324Z,100653.00
2023-02-16T18:36:06.547Z,100650.72
2023-02-16T18:38:35.938Z,100647.09
2023-02-16T18:41:05.217Z,100648.94
2023-02-16T18:43:37.008Z,100650.72
2023-02-16T18:46:08.259Z,100651.72
2023-02-16T18:48:37.271Z,100654.28
2023-02-16T18:51:07.183Z,100651.01
2023-02-16T18:53:38.223Z,100650.80
2023-02-16T18:56:08.542Z,100642.60
2023-02-16T18:58:38.863Z,100651.22
2023-02-16T19:01:16.333Z,100649.01
2023-02-16T19:03:45.179Z,100649.01
2023-02-16T19:06:14.086Z,100635.34
2023-02-16T19:08:42.776Z,100628.58
2023-02-16T19:11:14.214Z,100628.44
2023-02-16T19:13:44.221Z,100625.09
2023-02-16T19:16:14.567Z,100622.02
2023-02-16T19:18:43.233Z,100612.41
2023-02-16T19:21:13.398Z,100615.33
2023-02-16T19:23:42.001Z,100607.92
2023-02-16T19:26:12.786Z,100608.64
2023-02-16T19:28:43.920Z,100609.00
2023-02-16T19:31:23.449Z,100599.17
2023-02-16T19:33:52.533Z,100601.02
2023-02-16T19:36:21.072Z,100597.46
2023-02-16T19:38:50.408Z,100592.91
2023-02-16T19:41:23.290Z,100591.84
2023-02-16T19:43:52.045Z,100579.80
2023-02-16T19:46:21.006Z,100581.80
2023-02-16T19:48:50.515Z,100577.67
2023-02-16T19:51:19.886Z,100572.19
2023-02-16T19:53:50.237Z,100562.87
2023-02-16T19:56:22.189Z,100560.16
2023-02-16T19:58:52.394Z,100562.66
2023-02-16T20:01:24.064Z,100558.73
2023-02-16T20:03:53.706Z,100558.38
2023-02-16T20:06:28.007Z,100554.22
2023-02-16T20:08:58.843Z,100548.95
2023-02-16T20:11:28.957Z,100546.61
2023-02-16T20:13:59.128Z,100546.97
2023-02-16T20:16:28.172Z,100538.84
2023-02-16T20:18:57.438Z,100534.94
2023-02-16T20:21:27.157Z,100533.58
2023-02-16T20:24:00.302Z,100531.38
2023-02-16T20:26:34.636Z,100526.61
2023-02-16T20:29:06.536Z,100520.77
2023-02-16T20:31:43.882Z,100522.77
2023-02-16T20:34:13.365Z,100528.47
2023-02-16T20:36:42.444Z,100525.05
2023-02-16T20:39:11.122Z,100521.27
2023-02-16T20:41:40.700Z,100520.98
2023-02-16T20:44:09.832Z,100514.80
2023-02-16T20:46:38.893Z,100516.00
2023-02-16T20:49:08.139Z,100517.06
2023-02-16T20:51:37.169Z,100513.71
2023-02-16T20:54:05.963Z,100511.29
2023-02-16T20:56:35.588Z,100511.57
2023-02-16T20:59:04.840Z,100511.11
2023-02-16T21:01:37.776Z,100496.66
2023-02-16T21:04:07.079Z,100495.44
2023-02-16T21:06:37.237Z,100500.67
2023-02-16T21:09:06.522Z,100492.98
2023-02-16T21:11:37.157Z,100490.84
2023-02-16T21:14:06.802Z,100487.06
2023-02-16T21:16:36.946Z,100481.00
2023-02-16T21:19:17.297Z,100476.38
2023-02-16T21:21:36.819Z,100470.62
2023-02-16T21:24:06.551Z,100471.11
2023-02-16T21:26:35.303Z,100469.91
2023-02-16T21:29:05.390Z,100466.63
2023-02-16T21:31:34.098Z,100464.70
2023-02-16T21:34:02.874Z,100462.84
2023-02-16T21:36:32.976Z,100462.22
2023-02-16T21:39:02.897Z,100452.77
2023-02-16T21:41:31.970Z,100459.88
2023-02-16T21:44:08.305Z,100452.62
2023-02-16T21:46:40.889Z,100453.13
2023-02-16T21:49:19.038Z,100454.12
2023-02-16T21:51:48.206Z,100452.33
2023-02-16T21:54:20.746Z,100443.39
2023-02-16T21:56:52.609Z,100442.45
2023-02-16T21:59:24.206Z,100437.11
2023-02-16T22:01:52.849Z,100441.79
2023-02-16T22:04:23.357Z,100436.03
2023-02-16T22:06:54.828Z,100434.82
2023-02-16T22:09:23.927Z,100432.75
2023-02-16T22:11:54.093Z,100425.07
2023-02-16T22:14:23.098Z,100431.67
2023-02-16T22:16:53.454Z,100426.28
2023-02-16T22:19:23.374Z,100422.02
2023-02-16T22:21:52.132Z,100426.20
2023-02-16T22:24:21.148Z,100421.66
2023-02-16T22:26:50.756Z,100415.41
2023-02-16T22:29:20.133Z,100409.02
2023-02-16T22:31:50.723Z,100412.93
2023-02-16T22:34:21.512Z,100409.60
2023-02-16T22:36:50.121Z,100409.47
2023-02-16T22:39:18.860Z,100400.23
2023-02-16T22:41:50.412Z,100401.59
2023-02-16T22:44:19.867Z,100402.94
2023-02-16T22:46:48.443Z,100392.28
2023-02-16T22:49:17.653Z,100395.34
2023-02-16T22:51:46.575Z,100392.15
2023-02-16T22:54:16.650Z,100388.10
2023-02-16T22:56:46.356Z,100398.26
2023-02-16T22:59:14.964Z,100382.43
2023-02-16T23:01:44.532Z,100381.80
2023-02-16T23:04:15.189Z,100377.75
2023-02-16T23:06:47.376Z,100375.41
2023-02-16T23:09:21.176Z,100380.67
2023-02-16T23:11:50.361Z,100378.19
2023-02-16T23:14:20.284Z,100374.14
2023-02-16T23:16:54.243Z,100375.56
2023-02-16T23:19:25.960Z,100370.09
2023-02-16T23:21:55.479Z,100375.98
2023-02-16T23:24:24.111Z,100371.58
2023-02-16T23:26:52.808Z,100371.08
2023-02-16T23:29:21.650Z,100372.65
2023-02-16T23:31:53.740Z,100369.67
2023-02-16T23:34:24.756Z,100372.73
2023-02-16T23:36:55.045Z,100369.53
2023-02-16T23:39:24.256Z,100363.64
2023-02-16T23:41:53.167Z,100352.35
2023-02-16T23:44:21.606Z,100349.66
2023-02-16T23:46:50.152Z,100350.01
2023-02-16T23:49:18.903Z,100351.00
2023-02-16T23:51:47.489Z,100346.59
2023-02-16T23:54:16.361Z,100352.00
2023-02-16T23:56:45.162Z,100350.64
2023-02-16T23:59:13.658Z,100351.00
